Time;durP1;ratioP1;P1;durP2;ratioP2;P2;SDS_P1;SDS_P2;PMS_P1;PMS_P2;Temp;Humidity;BMP_temperature;BMP_pressure;BME280_temperature;BME280_humidity;BME280_pressure;Samples;Min_cycle;Max_cycle;Signal;HPM_P1;HPM_P2
2022/03/29 00:00:17;;;;;;;57.53;29.95;;;;;;;12.63;57.11;100142.59;5098191;28;20329;-74
2022/03/29 00:02:43;;;;;;;55.65;28.05;;;;;;;12.78;56.49;100141.75;5095147;28;20353;-75
2022/03/29 00:05:09;;;;;;;56.78;28.00;;;;;;;12.87;56.39;100142.59;5096244;28;20032;-74
2022/03/29 00:07:34;;;;;;;44.20;23.95;;;;;;;12.69;54.72;100116.19;5096775;28;20040;-75
2022/03/29 00:10:04;;;;;;;54.88;26.77;;;;;;;12.72;55.04;100138.94;5095444;28;20028;-74
2022/03/29 00:12:31;;;;;;;47.22;24.88;;;;;;;12.31;55.49;100151.31;5095534;28;20035;-74
2022/03/29 00:14:57;;;;;;;50.35;25.35;;;;;;;11.76;57.08;100154.44;5097579;28;20028;-74
2022/03/29 00:20:59;;;;;;;64.45;27.15;;;;;;;11.93;57.14;100148.25;5095779;28;20344;-76
2022/03/29 00:23:25;;;;;;;52.03;27.27;;;;;;;11.88;58.54;100158.50;5096942;28;20036;-74
2022/03/29 00:25:50;;;;;;;47.08;26.48;;;;;;;11.90;58.31;100155.69;5096219;28;20337;-74
2022/03/29 00:28:16;;;;;;;58.90;27.23;;;;;;;11.97;58.22;100138.97;5098543;28;20047;-75
2022/03/29 00:30:41;;;;;;;51.28;27.63;;;;;;;11.83;57.32;100092.66;5094903;28;20031;-74
2022/03/29 00:33:07;;;;;;;53.55;27.58;;;;;;;12.10;57.21;100142.00;5095978;28;20196;-74
2022/03/29 00:35:33;;;;;;;59.75;29.30;;;;;;;11.97;58.46;100143.44;5096092;28;20127;-74
2022/03/29 00:37:58;;;;;;;54.33;29.55;;;;;;;12.00;59.26;100140.47;5094543;28;20314;-74
2022/03/29 00:40:24;;;;;;;56.35;28.45;;;;;;;12.18;57.99;100143.81;5095287;28;20098;-74
2022/03/29 00:42:50;;;;;;;61.00;28.80;;;;;;;12.09;58.43;100132.38;5097409;28;20038;-74
2022/03/29 00:45:15;;;;;;;59.70;28.48;;;;;;;12.18;58.45;100143.00;5094954;28;20378;-74
2022/03/29 00:47:41;;;;;;;55.80;27.70;;;;;;;12.12;58.61;100137.34;5095631;28;20066;-74
2022/03/29 00:50:07;;;;;;;56.00;30.02;;;;;;;12.06;57.66;100118.59;5098072;28;20040;-74
2022/03/29 00:52:33;;;;;;;56.55;29.77;;;;;;;12.17;57.88;100130.72;5094989;28;20028;-74
2022/03/29 00:55:02;;;;;;;63.90;28.95;;;;;;;12.03;57.78;100133.00;5096935;28;20043;-75
2022/03/29 00:57:29;;;;;;;47.05;27.77;;;;;;;11.86;57.81;100115.38;5096351;28;20043;-74
2022/03/29 00:59:55;;;;;;;49.65;27.65;;;;;;;11.85;58.05;100118.19;5094262;28;20267;-75
2022/03/29 01:02:21;;;;;;;57.58;28.02;;;;;;;11.71;57.91;100115.13;5096179;28;20046;-74
2022/03/29 01:04:47;;;;;;;59.97;27.83;;;;;;;11.73;58.06;100117.63;5096002;28;20060;-75
2022/03/29 01:07:13;;;;;;;57.40;28.35;;;;;;;11.70;58.87;100105.50;5095683;28;20028;-75
2022/03/29 01:09:39;;;;;;;56.38;26.83;;;;;;;11.67;59.56;100107.66;5094105;28;20035;-74
2022/03/29 01:12:05;;;;;;;59.17;28.60;;;;;;;11.74;59.44;100106.03;5096721;28;20048;-75
2022/03/29 01:14:31;;;;;;;52.75;27.48;;;;;;;11.78;58.34;100102.09;5095531;28;20044;-75
2022/03/29 01:19:43;;;;;;;53.72;26.73;;;;;;;11.60;58.07;100090.72;5094062;28;20039;-75
2022/03/29 01:22:10;;;;;;;53.63;26.63;;;;;;;11.42;57.70;100083.66;5096155;28;20035;-74
2022/03/29 01:24:40;;;;;;;55.60;26.98;;;;;;;11.45;58.47;100087.84;5096335;28;20234;-74
2022/03/29 01:27:07;;;;;;;58.55;27.23;;;;;;;11.32;58.24;100082.94;5094514;28;20071;-76
2022/03/29 01:29:34;;;;;;;60.75;27.85;;;;;;;11.32;58.14;100068.88;5096719;28;20291;-74
2022/03/29 01:32:08;;;;;;;52.05;27.92;;;;;;;11.36;59.44;100078.16;5097110;28;20040;-74
2022/03/29 01:34:41;;;;;;;53.42;28.38;;;;;;;11.28;58.96;100068.34;5095837;28;20039;-75
2022/03/29 01:37:07;;;;;;;51.10;27.38;;;;;;;11.05;59.59;100030.13;5093243;28;20036;-73
2022/03/29 01:39:33;;;;;;;54.67;28.25;;;;;;;11.34;59.13;100064.22;5096367;28;20028;-75
2022/03/29 01:41:59;;;;;;;55.40;26.67;;;;;;;11.31;59.09;100060.06;5095377;28;20055;-73
2022/03/29 01:44:24;;;;;;;55.72;27.33;;;;;;;11.22;59.04;100041.66;5093653;28;20032;-74
2022/03/29 01:46:50;;;;;;;52.45;26.38;;;;;;;11.23;59.57;100035.34;5095844;28;20024;-75
2022/03/29 01:49:16;;;;;;;55.80;25.00;;;;;;;11.34;59.65;100038.56;5095512;28;20420;-74
2022/03/29 01:51:44;;;;;;;47.15;25.08;;;;;;;11.40;59.93;100043.22;5094698;28;20300;-75
2022/03/29 01:54:09;;;;;;;50.60;26.45;;;;;;;11.46;59.66;100032.00;5095976;28;20040;-74
2022/03/29 01:56:36;;;;;;;54.17;25.90;;;;;;;11.41;59.95;100046.69;5093076;28;20059;-74
2022/03/29 01:59:11;;;;;;;46.83;24.42;;;;;;;11.43;60.08;100029.63;5094557;28;20023;-74
2022/03/29 02:01:48;;;;;;;53.50;23.95;;;;;;;11.47;60.39;100040.78;5092704;28;20044;-75
2022/03/29 02:04:14;;;;;;;52.55;24.80;;;;;;;11.44;60.21;100030.47;5092867;28;20218;-73
2022/03/29 02:06:40;;;;;;;48.55;25.13;;;;;;;11.30;59.94;100021.31;5095901;28;20024;-73
2022/03/29 02:09:07;;;;;;;54.92;23.55;;;;;;;11.28;58.84;100017.16;5093962;28;20407;-74
2022/03/29 02:11:33;;;;;;;45.88;24.45;;;;;;;11.24;58.38;100018.47;5093107;28;20028;-74
2022/03/29 02:13:59;;;;;;;50.70;26.10;;;;;;;11.08;59.16;100025.34;5094733;28;20055;-74
2022/03/29 02:16:24;;;;;;;49.22;24.50;;;;;;;11.11;59.63;100021.56;5096100;28;20491;-74
2022/03/29 02:18:50;;;;;;;48.33;25.15;;;;;;;11.15;59.02;100015.78;5093932;28;21314;-74
2022/03/29 02:21:17;;;;;;;55.00;24.63;;;;;;;11.02;59.71;100001.31;5095028;28;20028;-75
2022/03/29 02:23:42;;;;;;;48.63;24.48;;;;;;;10.76;61.00;99977.50;5094716;28;20050;-75
2022/03/29 02:26:08;;;;;;;54.00;25.90;;;;;;;11.04;61.07;100009.94;5093276;28;20217;-75
2022/03/29 02:28:34;;;;;;;53.55;26.65;;;;;;;11.04;60.46;100001.97;5094469;28;20043;-75
2022/03/29 02:30:59;;;;;;;43.45;24.23;;;;;;;11.00;58.27;100009.41;5093900;28;20038;-73
2022/03/29 02:33:25;;;;;;;50.45;25.08;;;;;;;10.80;57.39;99997.38;5094284;28;20031;-73
2022/03/29 02:35:50;;;;;;;59.67;26.05;;;;;;;10.65;58.02;99989.19;5095521;28;20200;-74
2022/03/29 02:38:18;;;;;;;50.35;25.63;;;;;;;10.62;59.36;100002.75;5092941;28;20199;-74
2022/03/29 02:40:44;;;;;;;50.60;26.98;;;;;;;10.60;59.65;100004.72;5094506;28;20318;-75
2022/03/29 02:43:10;;;;;;;53.50;26.05;;;;;;;10.58;59.82;100012.00;5093790;28;20050;-75
2022/03/29 02:45:35;;;;;;;57.53;26.42;;;;;;;10.61;59.45;100003.72;5092704;28;20106;-73
2022/03/29 02:48:00;;;;;;;49.08;25.58;;;;;;;10.58;59.63;100004.03;5125472;28;20099;-75
2022/03/29 02:50:26;;;;;;;50.35;26.15;;;;;;;10.52;59.83;99976.38;5093547;28;20040;-74
2022/03/29 02:52:55;;;;;;;58.35;26.20;;;;;;;10.64;59.43;99999.94;5093567;28;20252;-74
2022/03/29 02:55:25;;;;;;;56.17;26.80;;;;;;;10.64;58.73;100007.88;5093918;28;20056;-74
2022/03/29 02:57:50;;;;;;;59.25;29.42;;;;;;;10.18;60.76;99981.53;5095536;28;20582;-73
2022/03/29 03:00:17;;;;;;;58.75;28.92;;;;;;;10.39;59.93;99999.75;5092926;28;20032;-75
2022/03/29 03:02:44;;;;;;;51.70;25.42;;;;;;;10.35;59.28;99998.41;5092538;28;20040;-75
2022/03/29 03:05:10;;;;;;;48.30;26.50;;;;;;;10.23;59.79;99978.47;5093613;28;20039;-74
2022/03/29 03:07:36;;;;;;;46.17;24.38;;;;;;;10.18;58.46;99992.13;5093691;28;20035;-76
2022/03/29 03:10:02;;;;;;;54.38;25.35;;;;;;;9.94;59.43;99973.41;5095458;28;20020;-76
2022/03/29 03:12:28;;;;;;;50.40;26.70;;;;;;;9.99;60.72;99991.47;5093130;28;20191;-75
2022/03/29 03:14:53;;;;;;;53.13;27.08;;;;;;;9.91;60.54;99985.13;5092575;28;20040;-74
2022/03/29 03:17:19;;;;;;;43.10;24.48;;;;;;;9.83;60.62;99981.56;5094861;28;20091;-75
2022/03/29 03:19:44;;;;;;;50.63;26.02;;;;;;;9.77;61.54;99985.66;5093576;28;20099;-75
2022/03/29 03:22:11;;;;;;;55.85;27.35;;;;;;;9.56;62.56;99959.50;5093245;28;20349;-75
2022/03/29 03:24:36;;;;;;;56.75;26.42;;;;;;;9.60;63.23;99973.25;5095095;28;20036;-73
2022/03/29 03:27:02;;;;;;;56.58;26.13;;;;;;;9.61;63.69;99980.19;5093199;28;20150;-75
2022/03/29 03:29:28;;;;;;;58.30;26.77;;;;;;;9.74;64.62;99974.53;5093007;28;20074;-75
2022/03/29 03:31:53;;;;;;;49.97;25.50;;;;;;;9.84;63.88;99980.59;5095161;28;20257;-74
2022/03/29 03:34:18;;;;;;;47.28;24.55;;;;;;;9.88;62.92;99969.56;5093202;28;20032;-74
2022/03/29 03:36:44;;;;;;;48.58;25.40;;;;;;;10.07;62.73;99979.13;5092651;28;20106;-75
2022/03/29 03:39:09;;;;;;;47.72;25.13;;;;;;;10.01;62.66;99979.75;5093800;28;20039;-74
2022/03/29 03:41:37;;;;;;;54.05;26.55;;;;;;;9.89;63.50;99983.59;5095770;28;20040;-74
2022/03/29 03:44:03;;;;;;;58.28;28.45;;;;;;;9.84;63.92;99970.84;5096704;28;20032;-75
2022/03/29 03:46:28;;;;;;;62.08;28.38;;;;;;;9.94;63.33;99970.75;5098607;28;20354;-75
2022/03/29 03:48:54;;;;;;;49.25;25.83;;;;;;;10.01;62.28;99979.75;5096287;28;20344;-75
2022/03/29 03:51:19;;;;;;;54.00;25.52;;;;;;;10.09;60.61;99994.84;5097750;28;20032;-75
2022/03/29 03:53:45;;;;;;;58.17;24.15;;;;;;;9.60;61.64;100000.53;5097014;28;20065;-75
2022/03/29 03:56:10;;;;;;;53.05;26.65;;;;;;;9.17;64.80;99998.53;5096674;28;20038;-74
2022/03/29 03:58:36;;;;;;;45.63;23.55;;;;;;;8.81;66.77;100009.94;5099022;28;20054;-74
2022/03/29 04:01:01;;;;;;;47.97;24.08;;;;;;;8.76;67.43;100001.63;5096271;28;20047;-74
2022/03/29 04:03:27;;;;;;;56.63;25.83;;;;;;;8.92;66.68;99996.53;5097617;28;20051;-73
2022/03/29 04:05:52;;;;;;;49.92;25.17;;;;;;;8.91;66.21;99995.72;5097177;28;20040;-74
2022/03/29 04:08:18;;;;;;;49.05;23.25;;;;;;;8.86;66.37;99995.31;5097043;28;20051;-74
2022/03/29 04:10:44;;;;;;;49.70;23.92;;;;;;;8.63;66.84;99992.19;5096685;28;20039;-74
2022/03/29 04:13:10;;;;;;;46.75;24.02;;;;;;;8.56;68.58;99999.03;5095338;28;20044;-74
2022/03/29 04:15:35;;;;;;;48.10;23.92;;;;;;;8.40;69.60;99993.50;5096657;28;20031;-75
2022/03/29 04:18:01;;;;;;;46.42;23.45;;;;;;;8.26;70.20;99996.53;5096726;28;20028;-73
2022/03/29 04:20:27;;;;;;;46.47;22.95;;;;;;;8.18;69.88;99991.13;5095665;28;20066;-75
2022/03/29 04:22:53;;;;;;;45.33;22.60;;;;;;;7.93;71.26;99981.97;5096239;28;20199;-75
2022/03/29 04:25:18;;;;;;;42.67;24.48;;;;;;;8.21;71.48;99989.03;5097376;28;20027;-75
2022/03/29 04:27:43;;;;;;;63.85;24.35;;;;;;;8.41;71.00;99986.44;5095433;28;20024;-75
2022/03/29 04:30:10;;;;;;;59.15;23.48;;;;;;;8.46;68.72;99957.81;5095489;28;20107;-74
2022/03/29 04:32:37;;;;;;;43.83;23.15;;;;;;;8.75;68.61;99990.22;5096879;28;20044;-75
2022/03/29 04:35:03;;;;;;;42.90;21.85;;;;;;;8.81;68.17;99988.81;5096691;28;20105;-75
2022/03/29 04:37:29;;;;;;;39.45;21.33;;;;;;;8.71;68.15;99982.72;5095435;28;20226;-76
2022/03/29 04:39:54;;;;;;;40.35;21.08;;;;;;;8.90;67.05;99993.22;5097982;28;20048;-75
2022/03/29 04:42:20;;;;;;;45.83;22.38;;;;;;;8.86;66.53;99994.50;5095442;28;20028;-77
2022/03/29 04:44:46;;;;;;;42.45;22.25;;;;;;;8.82;67.72;99995.75;5095968;28;20030;-76
2022/03/29 04:47:11;;;;;;;45.60;21.75;;;;;;;8.52;68.10;99951.97;5096914;28;20222;-76
2022/03/29 04:49:37;;;;;;;43.85;21.88;;;;;;;8.80;68.92;99985.34;5094111;28;20424;-76
2022/03/29 04:52:03;;;;;;;40.38;21.98;;;;;;;9.06;67.77;99989.97;5095136;28;20035;-76
2022/03/29 04:54:29;;;;;;;49.05;22.83;;;;;;;9.27;68.22;99991.38;5095070;28;20173;-77
2022/03/29 04:56:54;;;;;;;49.05;23.15;;;;;;;9.37;67.62;99988.69;5097064;28;20256;-74
2022/03/29 04:59:20;;;;;;;42.25;22.55;;;;;;;9.44;67.07;99996.88;5096965;28;20043;-74
2022/03/29 05:01:45;;;;;;;50.22;23.40;;;;;;;9.53;66.60;99982.75;5095350;28;20048;-76
2022/03/29 05:04:11;;;;;;;48.10;23.95;;;;;;;9.64;66.31;99992.28;5094955;28;20023;-75
2022/03/29 05:06:36;;;;;;;48.75;24.33;;;;;;;9.64;65.92;99989.63;5097099;28;20199;-76
2022/03/29 05:09:03;;;;;;;42.65;24.88;;;;;;;9.56;67.00;99982.47;5095043;28;20118;-77
2022/03/29 05:11:29;;;;;;;53.50;26.58;;;;;;;9.60;67.80;99997.88;5094447;28;20024;-77
2022/03/29 05:13:55;;;;;;;57.40;26.27;;;;;;;9.68;68.14;99996.28;5096232;28;20059;-77
2022/03/29 05:16:20;;;;;;;56.17;29.13;;;;;;;9.66;68.42;99971.81;5095018;28;20074;-76
2022/03/29 05:18:46;;;;;;;54.00;28.38;;;;;;;10.06;67.32;99992.50;5095884;28;20048;-74
2022/03/29 05:21:12;;;;;;;62.35;27.88;;;;;;;9.97;66.94;99959.88;5095507;28;20105;-73
2022/03/29 05:23:38;;;;;;;62.40;30.33;;;;;;;10.44;66.62;99994.84;5094842;28;20040;-74
2022/03/29 05:26:03;;;;;;;54.95;28.55;;;;;;;10.63;64.95;99987.69;5096072;28;20102;-73
2022/03/29 05:28:28;;;;;;;57.88;29.52;;;;;;;10.78;65.95;99970.22;5096007;28;20338;-75
2022/03/29 05:30:54;;;;;;;55.95;29.38;;;;;;;11.00;65.11;99997.97;5093914;28;20047;-74
2022/03/29 05:33:19;;;;;;;56.08;29.63;;;;;;;11.18;64.26;100001.38;5095293;28;20166;-74
2022/03/29 05:35:45;;;;;;;54.53;29.27;;;;;;;11.44;63.36;99994.22;5093866;28;20099;-74
2022/03/29 05:38:11;;;;;;;67.80;30.05;;;;;;;11.42;63.36;99968.81;5095769;28;20063;-74
2022/03/29 05:40:37;;;;;;;75.40;37.95;;;;;;;11.68;62.76;99985.47;5094564;28;20035;-74
2022/03/29 05:43:02;;;;;;;79.25;37.30;;;;;;;11.83;63.09;99991.00;5094472;28;20036;-74
2022/03/29 05:45:30;;;;;;;82.32;38.65;;;;;;;11.79;63.24;100000.28;5094722;28;20028;-74
2022/03/29 05:50:41;;;;;;;81.18;37.92;;;;;;;12.04;62.62;99990.50;5093609;28;20030;-75
2022/03/29 05:53:06;;;;;;;75.95;35.50;;;;;;;12.41;61.44;99997.97;5095617;28;20203;-74
2022/03/29 05:55:32;;;;;;;71.88;35.70;;;;;;;12.76;60.85;99997.59;5093397;28;20020;-74
2022/03/29 05:57:57;;;;;;;73.88;37.90;;;;;;;12.98;59.99;99990.72;5096578;28;20065;-73
2022/03/29 06:00:23;;;;;;;89.45;40.90;;;;;;;13.33;58.60;99994.78;5093563;28;20024;-74
2022/03/29 06:02:49;;;;;;;90.43;40.03;;;;;;;13.49;58.28;99996.53;5096024;28;20109;-74
2022/03/29 06:05:15;;;;;;;86.60;39.35;;;;;;;13.78;58.46;99997.72;5093363;28;20489;-74
2022/03/29 06:07:41;;;;;;;80.70;38.25;;;;;;;13.78;57.41;99987.91;5095083;28;20036;-75
2022/03/29 06:10:07;;;;;;;77.43;38.70;;;;;;;14.04;56.21;99974.22;5095626;28;20052;-75
2022/03/29 06:12:34;;;;;;;76.88;36.10;;;;;;;14.27;56.37;99988.34;5094915;28;20094;-74
2022/03/29 06:15:08;;;;;;;61.20;33.60;;;;;;;14.63;54.36;99999.22;5094344;28;20035;-75
2022/03/29 06:17:35;;;;;;;61.67;33.13;;;;;;;14.74;52.41;99989.94;5095232;28;20028;-75
2022/03/29 06:20:03;;;;;;;57.90;31.90;;;;;;;14.63;53.20;99985.06;5124329;27;20245;-74
2022/03/29 06:22:30;;;;;;;59.92;33.03;;;;;;;14.93;52.11;99991.25;5094572;28;20036;-74
2022/03/29 06:24:58;;;;;;;58.15;32.17;;;;;;;15.03;50.96;99967.78;5094145;28;20040;-74
2022/03/29 06:27:23;;;;;;;60.58;31.67;;;;;;;15.41;50.55;99986.31;5095228;28;20043;-75
2022/03/29 06:29:49;;;;;;;53.28;29.02;;;;;;;15.35;50.03;99979.88;5093137;28;20370;-74
2022/03/29 06:32:14;;;;;;;57.03;31.55;;;;;;;15.37;49.90;99966.34;5094684;28;20042;-75
2022/03/29 06:34:39;;;;;;;50.05;29.02;;;;;;;15.67;48.08;99965.31;5095182;28;20209;-74
2022/03/29 06:37:05;;;;;;;54.90;29.33;;;;;;;15.70;47.90;99961.44;5093863;28;20038;-75
2022/03/29 06:39:30;;;;;;;54.00;27.70;;;;;;;16.04;47.44;99950.88;5094198;28;20028;-75
2022/03/29 06:41:56;;;;;;;51.67;28.92;;;;;;;16.36;46.53;99948.66;5095097;28;20030;-75
2022/03/29 06:44:22;;;;;;;55.00;26.98;;;;;;;16.63;44.63;99952.34;5093388;28;20044;-75
2022/03/29 06:46:49;;;;;;;49.60;27.00;;;;;;;16.90;43.94;99960.38;5094887;28;20023;-76
2022/03/29 06:49:15;;;;;;;47.40;26.10;;;;;;;17.19;43.91;99961.13;5094327;28;20048;-74
2022/03/29 06:51:41;;;;;;;42.63;22.88;;;;;;;17.47;42.68;99958.34;5089697;28;20072;-76
2022/03/29 06:54:06;;;;;;;42.17;22.23;;;;;;;17.68;42.96;99950.19;5091942;28;20036;-75
2022/03/29 06:56:32;;;;;;;40.80;22.27;;;;;;;17.67;43.44;99945.88;5094086;28;20042;-76
2022/03/29 06:59:00;;;;;;;46.65;24.23;;;;;;;18.02;42.60;99954.59;5092128;28;20112;-75
2022/03/29 07:01:25;;;;;;;37.25;21.55;;;;;;;18.25;41.86;99945.31;5090864;28;20221;-75
2022/03/29 07:03:51;;;;;;;40.25;21.10;;;;;;;18.38;41.05;99916.66;5093153;28;20035;-74
2022/03/29 07:06:17;;;;;;;39.55;20.92;;;;;;;18.60;41.36;99949.41;5092608;28;20016;-75
2022/03/29 07:11:26;;;;;;;34.80;16.60;;;;;;;18.74;39.60;99939.53;5092742;28;20043;-74
2022/03/29 07:13:53;;;;;;;33.72;16.88;;;;;;;18.78;39.27;99941.59;5093376;28;20302;-74
2022/03/29 07:16:19;;;;;;;34.35;18.15;;;;;;;18.92;39.40;99937.00;5126864;27;20260;-77
2022/03/29 07:18:45;;;;;;;38.35;19.60;;;;;;;19.26;38.85;99937.69;5095937;28;20127;-75
2022/03/29 07:21:10;;;;;;;28.98;18.15;;;;;;;19.37;38.24;99927.13;5096169;28;20230;-76
2022/03/29 07:23:37;;;;;;;30.48;17.17;;;;;;;19.47;37.54;99923.97;5096772;28;20203;-75
2022/03/29 07:26:03;;;;;;;21.17;13.07;;;;;;;19.40;36.10;99928.53;5095510;28;20341;-75
2022/03/29 07:28:28;;;;;;;27.98;14.50;;;;;;;19.60;35.80;99918.53;5095173;28;20024;-75
2022/03/29 07:30:54;;;;;;;31.48;15.05;;;;;;;19.53;36.04;99917.75;5095516;28;20860;-75
2022/03/29 07:33:19;;;;;;;30.10;15.02;;;;;;;19.57;35.73;99913.59;5095137;28;20038;-76
2022/03/29 07:35:47;;;;;;;28.63;15.18;;;;;;;19.73;35.26;99905.03;5096377;28;20260;-74
2022/03/29 07:38:13;;;;;;;29.90;14.68;;;;;;;20.06;34.74;99903.97;5097101;28;20044;-75
2022/03/29 07:40:40;;;;;;;29.40;15.52;;;;;;;19.82;34.98;99902.91;5094100;28;20043;-76
2022/03/29 07:43:08;;;;;;;33.85;15.45;;;;;;;19.80;35.21;99907.69;5095339;28;20055;-76
2022/03/29 07:45:34;;;;;;;27.10;15.13;;;;;;;19.66;35.99;99896.19;5095749;28;20330;-75
2022/03/29 07:48:02;;;;;;;26.48;16.45;;;;;;;19.60;35.39;99894.38;5096458;28;20032;-75
2022/03/29 07:50:27;;;;;;;30.45;16.75;;;;;;;19.70;36.13;99894.72;5095094;28;20091;-75
2022/03/29 07:52:54;;;;;;;34.28;18.75;;;;;;;19.30;35.94;99874.50;5094914;28;20359;-75
2022/03/29 07:55:19;;;;;;;42.35;18.60;;;;;;;19.71;35.90;99880.22;5096584;28;20027;-75
2022/03/29 07:57:45;;;;;;;34.50;17.88;;;;;;;20.33;34.76;99891.94;5094442;28;20086;-76
2022/03/29 08:00:31;;;;;;;32.60;18.35;;;;;;;20.56;34.09;99888.63;5094601;28;20302;-74
2022/03/29 08:02:58;;;;;;;34.95;18.48;;;;;;;20.39;34.19;99890.25;5092951;28;20318;-75
2022/03/29 08:05:24;;;;;;;37.70;19.20;;;;;;;20.47;34.44;99879.19;5093644;28;20142;-76
2022/03/29 08:07:50;;;;;;;32.65;18.63;;;;;;;20.71;33.16;99869.41;5095341;28;20023;-76
2022/03/29 08:10:16;;;;;;;31.08;19.45;;;;;;;20.61;32.99;99869.94;5094138;28;20024;-76
2022/03/29 08:12:42;;;;;;;34.08;19.92;;;;;;;20.80;33.11;99875.31;5095528;28;20356;-76
2022/03/29 08:15:10;;;;;;;43.70;21.50;;;;;;;20.60;32.99;99867.47;5096346;28;20310;-76
2022/03/29 08:17:36;;;;;;;31.88;20.20;;;;;;;20.85;32.44;99873.63;5094452;28;20033;-76
2022/03/29 08:20:05;;;;;;;35.58;21.00;;;;;;;21.17;31.81;99868.84;5096364;28;20020;-76
2022/03/29 08:22:32;;;;;;;44.03;20.77;;;;;;;20.90;31.67;99852.22;5096193;28;20139;-76
2022/03/29 08:24:58;;;;;;;36.00;19.48;;;;;;;21.39;31.07;99857.59;5093747;28;20058;-76
2022/03/29 08:27:23;;;;;;;40.42;20.45;;;;;;;21.66;31.23;99854.28;5093811;28;20016;-77
2022/03/29 08:29:49;;;;;;;48.72;23.17;;;;;;;21.34;31.48;99847.53;5094422;28;20053;-76
2022/03/29 08:32:14;;;;;;;36.03;20.05;;;;;;;21.53;31.10;99848.28;5094652;28;20064;-74
2022/03/29 08:34:40;;;;;;;38.95;19.88;;;;;;;21.75;31.09;99845.84;5095546;28;20035;-75
2022/03/29 08:37:05;;;;;;;33.97;20.13;;;;;;;21.82;30.29;99835.78;5094170;28;20033;-76
2022/03/29 08:39:31;;;;;;;33.85;16.50;;;;;;;21.77;30.55;99835.66;5094549;28;20028;-76
2022/03/29 08:42:07;;;;;;;30.15;15.38;;;;;;;21.73;30.00;99827.22;5093282;28;20027;-77
2022/03/29 08:44:33;;;;;;;39.88;18.50;;;;;;;21.90;29.71;99817.41;5095188;28;20326;-76
2022/03/29 08:46:59;;;;;;;34.85;17.98;;;;;;;21.70;30.61;99811.50;5093988;28;20039;-77
2022/03/29 08:49:25;;;;;;;29.40;15.63;;;;;;;21.99;29.77;99815.19;5095418;28;20032;-76
2022/03/29 08:51:51;;;;;;;33.88;16.98;;;;;;;22.05;29.13;99806.19;5094667;28;20048;-76
2022/03/29 08:54:17;;;;;;;42.35;17.48;;;;;;;21.74;29.96;99790.31;5094445;28;20172;-76
2022/03/29 08:56:42;;;;;;;34.58;18.25;;;;;;;21.88;30.15;99800.66;5095190;28;20517;-76
2022/03/29 08:59:08;;;;;;;29.50;14.68;;;;;;;22.06;29.88;99780.06;5093459;28;20031;-77
2022/03/29 09:01:33;;;;;;;29.15;14.10;;;;;;;22.25;28.57;99793.16;5092740;28;20040;-76
2022/03/29 09:04:13;;;;;;;25.67;12.95;;;;;;;22.17;28.05;99787.31;5094494;28;20046;-76
2022/03/29 09:06:56;;;;;;;23.58;13.55;;;;;;;22.35;27.94;99795.25;5094514;28;20031;-76
2022/03/29 09:09:28;;;;;;;35.67;14.77;;;;;;;22.34;28.94;99785.53;5094404;28;20036;-76
2022/03/29 09:11:56;;;;;;;30.67;15.10;;;;;;;22.44;28.61;99777.63;5093527;28;20102;-76
2022/03/29 09:14:23;;;;;;;29.70;14.43;;;;;;;22.31;28.92;99759.03;5093459;28;20052;-77
2022/03/29 09:16:51;;;;;;;26.90;13.52;;;;;;;22.15;29.01;99765.97;5096171;28;20347;-77
2022/03/29 09:19:16;;;;;;;27.48;14.13;;;;;;;22.15;28.63;99771.38;5095657;28;20039;-76
2022/03/29 09:21:43;;;;;;;30.27;12.10;;;;;;;21.92;28.20;99723.66;5094138;28;20036;-76
2022/03/29 09:24:15;;;;;;;25.63;13.02;;;;;;;22.09;28.60;99763.41;5094555;28;20069;-76
2022/03/29 09:26:55;;;;;;;29.70;12.77;;;;;;;22.21;28.36;99748.84;5095592;28;20055;-75
2022/03/29 09:29:23;;;;;;;29.35;13.13;;;;;;;22.28;28.98;99743.31;5094562;28;20043;-78
2022/03/29 09:32:09;;;;;;;22.85;12.82;;;;;;;22.17;29.08;99746.84;5093691;28;20032;-76
2022/03/29 09:34:35;;;;;;;23.95;13.45;;;;;;;22.28;27.79;99748.69;5092989;28;20153;-76
2022/03/29 09:37:02;;;;;;;20.80;10.65;;;;;;;22.06;27.89;99734.22;5095346;28;20027;-76
2022/03/29 09:39:40;;;;;;;17.52;9.43;;;;;;;21.59;28.45;99726.09;5097543;28;20024;-74
2022/03/29 09:42:20;;;;;;;26.63;11.68;;;;;;;21.53;29.90;99727.84;5098430;28;20051;-74
2022/03/29 09:44:47;;;;;;;22.48;11.15;;;;;;;21.50;29.02;99725.63;5098362;28;20341;-76
2022/03/29 09:47:21;;;;;;;17.27;9.85;;;;;;;21.45;28.72;99719.31;5092797;28;20016;-76
2022/03/29 09:50:08;;;;;;;16.98;9.57;;;;;;;21.57;28.51;99718.25;5092846;28;20028;-76
2022/03/29 09:52:38;;;;;;;23.10;10.95;;;;;;;21.63;27.87;99703.84;5093867;28;20223;-76
2022/03/29 09:55:09;;;;;;;19.58;10.25;;;;;;;21.58;28.99;99706.41;5094738;28;20073;-76
2022/03/29 09:57:42;;;;;;;17.83;10.10;;;;;;;21.46;28.60;99705.59;5092827;28;20028;-76
2022/03/29 10:00:10;;;;;;;21.58;10.27;;;;;;;21.46;28.60;99697.50;5094727;28;20119;-76
2022/03/29 10:02:40;;;;;;;18.75;10.23;;;;;;;21.46;28.69;99689.44;5093115;28;20040;-76
2022/03/29 10:05:08;;;;;;;18.38;9.65;;;;;;;21.39;28.81;99687.91;5092873;28;20063;-76
2022/03/29 10:07:43;;;;;;;17.17;9.88;;;;;;;21.40;28.93;99679.59;5094159;28;20035;-76
2022/03/29 10:10:10;;;;;;;17.45;8.80;;;;;;;21.38;29.55;99678.19;5095634;28;20067;-76
2022/03/29 10:12:36;;;;;;;18.73;10.20;;;;;;;21.31;29.27;99672.91;5092432;28;20225;-76
2022/03/29 10:15:03;;;;;;;20.17;8.95;;;;;;;21.34;28.68;99672.44;5093213;28;20024;-76
2022/03/29 10:17:29;;;;;;;17.23;9.07;;;;;;;21.03;29.59;99641.25;5094142;28;20040;-76
2022/03/29 10:19:56;;;;;;;14.95;8.65;;;;;;;20.98;29.51;99652.72;5093525;28;20258;-74
2022/03/29 10:22:21;;;;;;;17.10;9.57;;;;;;;20.96;29.34;99645.94;5093227;28;20031;-80
2022/03/29 10:24:47;;;;;;;19.90;8.65;;;;;;;21.06;29.99;99648.03;5094441;28;20200;-72
2022/03/29 10:27:16;;;;;;;25.25;9.73;;;;;;;20.99;29.91;99642.78;5093159;28;20055;-71
2022/03/29 10:29:42;;;;;;;18.33;9.40;;;;;;;20.99;30.42;99626.63;5093159;28;20032;-75
2022/03/29 10:32:08;;;;;;;23.95;8.77;;;;;;;20.95;30.28;99637.03;5093281;28;20061;-76
2022/03/29 10:34:42;;;;;;;24.45;9.35;;;;;;;20.91;29.64;99629.66;5094523;28;20036;-75
2022/03/29 10:37:10;;;;;;;14.38;8.55;;;;;;;20.97;29.37;99624.16;5094241;28;20654;-75
2022/03/29 10:40:04;;;;;;;14.10;8.75;;;;;;;20.91;30.05;99624.28;5092738;28;20088;-75
2022/03/29 10:42:38;;;;;;;24.85;9.68;;;;;;;20.94;30.22;99613.88;5094161;28;20098;-75
2022/03/29 10:45:22;;;;;;;17.00;9.70;;;;;;;20.96;29.92;99608.25;5093614;28;20568;-75
2022/03/29 10:47:48;;;;;;;;;;;;;;;20.95;29.98;99603.91;5094979;28;20095;-74
2022/03/29 10:50:15;;;;;;;16.50;8.50;;;;;;;20.90;30.48;99606.50;5093612;28;20496;-75
2022/03/29 10:52:44;;;;;;;24.42;9.00;;;;;;;21.12;30.06;99604.03;5124853;27;20214;-75
2022/03/29 10:55:20;;;;;;;25.23;10.02;;;;;;;20.94;29.52;99605.78;5097368;28;20038;-75
2022/03/29 10:58:05;;;;;;;22.05;9.40;;;;;;;20.91;30.26;99594.66;5097685;28;20036;-75
2022/03/29 11:00:31;;;;;;;19.35;9.43;;;;;;;20.96;30.10;99592.91;5095474;28;20028;-75
2022/03/29 11:03:06;;;;;;;21.27;8.95;;;;;;;20.70;29.66;99566.41;5097873;28;20051;-75
2022/03/29 11:05:32;;;;;;;19.27;9.10;;;;;;;21.07;29.05;99585.06;5097244;28;20036;-75
2022/03/29 11:08:00;;;;;;;17.35;9.55;;;;;;;21.14;28.56;99589.28;5096424;28;20360;-75
2022/03/29 11:10:44;;;;;;;18.73;8.50;;;;;;;21.12;29.49;99580.63;5096227;28;20062;-76
2022/03/29 11:13:29;;;;;;;21.40;8.63;;;;;;;21.00;28.84;99575.25;5096680;28;20069;-77
2022/03/29 11:16:00;;;;;;;19.77;9.80;;;;;;;20.91;28.80;99567.75;5096045;28;20032;-76
2022/03/29 11:18:31;;;;;;;20.52;9.00;;;;;;;20.90;29.40;99569.63;5095956;28;20076;-75
2022/03/29 11:21:02;;;;;;;28.77;11.35;;;;;;;20.97;29.85;99550.66;5097256;28;20028;-75
2022/03/29 11:23:38;;;;;;;23.70;9.50;;;;;;;20.93;29.00;99557.56;5098151;28;20032;-76
2022/03/29 11:26:10;;;;;;;20.98;9.85;;;;;;;20.91;29.99;99548.91;5098170;28;20204;-76
2022/03/29 11:28:36;;;;;;;20.25;9.18;;;;;;;20.68;29.95;99550.50;5096254;28;20035;-76